Salem, OR (97301)

8:52 AM PDT on October 01, 2016 (GMT -0700)
Center & Cordon NE | | Change Station

Elev 210 ft 44.94 °N, 122.96 °W | Updated 9 seconds ago

Mostly Cloudy
Mostly Cloudy
54.7 °F
Feels Like 54.7 °F
N
7.6
Wind Variable Wind from SSW
Gusts 11.5 mph

Today
High -- | Low -- °F
--% Chance of Precip.
Yesterday
High -- | Low -- °F
Precip. -- in
Pressure 29.99 in
Visibility 10.0 miles
Clouds Few 5000 ft
Mostly Cloudy 7000 ft
Dew Point 50 °F
Humidity 84%
Rainfall 0.05 in
Snow Depth Not available.
7:10 AM 6:51 PM
New Moon, 0% visible
METAR KSLE 011456Z 19009KT 10SM FEW050 BKN070 11/08 A2999 RMK AO2 RAE12 SLP154 P0000 60002 T01110078 53001 $
Pressure 29.99 in
Visibility 10.0 miles
Clouds Few 5000 ft
Mostly Cloudy 7000 ft
Dew Point 50 °F
Humidity 84%
Rainfall 0.05 in
Snow Depth Not available.
7:10 AM 6:51 PM
New Moon, 0% visible
METAR KSLE 011456Z 19009KT 10SM FEW050 BKN070 11/08 A2999 RMK AO2 RAE12 SLP154 P0000 60002 T01110078 53001 $

10-Day Weather Forecast

Almanac

Astronomy

Oct. 01, 2016 Rise Set
Actual Time
Civil Twilight
Nautical Twilight
Astronomical Twilight
Moon
Length of Visible Light
Length of Day
Tomorrow will be .
, % of the Moon is Illuminated

Today's Extremes

State Highs State Lows

Community

WunderPhotos

Upload Photos

1,942,957 photos uploaded!

WunderBlog® & News

Nearby

Air Quality

  Air Quality AQ Index Pollutant
Not available.

Snow Depth

Station Depth Elevation

Earthquake Activity

City Distance Mag. Time & Date
Minimum magnitude displayed is 2.5.

Coastal Water Temperatures

Place Temperature

Stations

Nearby Weather Stations

Station Location Temp. Windchill Dew Point Humidity Wind Precip. Elev Updated Type
                   

Watches & Warnings

There are currently no watches in effect.